Terminal Aerodrome Forecast
Issued by NWS Charleston, WV

Current Version | Previous Version | Text Only | Print | Product List | Glossary Off
Versions: 1 2 3 4 5 6 7 8 9 10 11 12 13 14 15 16 17 18 19 20 21

000
FTUS41 KRLX 220858 AAA
TAFPKB
TAF AMD
KPKB 220858Z 2209/2306 00000KT P6SM SCT150
     FM221000 00000KT 6SM BR SCT150
     FM221300 22005KT P6SM SCT045
     FM230300 VRB02KT P6SM BKN100=

USA.gov is the U.S. government's official web portal to all federal, state and local government web resources and services.